sensor_id;sensor_type;location;lat;lon;timestamp;pressure;altitude;pressure_sealevel;temperature;humidity
43621;BME280;29213;50.770;7.298;2023-04-21T00:02:05;100574.41;;;6.58;62.11
43621;BME280;29213;50.770;7.298;2023-04-21T00:04:31;100655.38;;;7.10;62.33
43621;BME280;29213;50.770;7.298;2023-04-21T00:06:57;100570.91;;;6.58;62.02
43621;BME280;29213;50.770;7.298;2023-04-21T00:09:26;100650.22;;;7.08;62.13
43621;BME280;29213;50.770;7.298;2023-04-21T00:11:52;100653.00;;;7.07;62.24
43621;BME280;29213;50.770;7.298;2023-04-21T00:14:17;100510.28;;;6.25;62.10
43621;BME280;29213;50.770;7.298;2023-04-21T00:16:43;100633.75;;;7.05;62.12
43621;BME280;29213;50.770;7.298;2023-04-21T00:19:08;100568.41;;;6.56;61.76
43621;BME280;29213;50.770;7.298;2023-04-21T00:21:34;100548.19;;;6.45;61.96
43621;BME280;29213;50.770;7.298;2023-04-21T00:23:59;100598.09;;;6.79;62.13
43621;BME280;29213;50.770;7.298;2023-04-21T00:26:25;100548.34;;;6.53;62.35
43621;BME280;29213;50.770;7.298;2023-04-21T00:28:50;100557.66;;;6.58;62.31
43621;BME280;29213;50.770;7.298;2023-04-21T00:31:16;100595.44;;;6.79;62.46
43621;BME280;29213;50.770;7.298;2023-04-21T00:33:41;100443.25;;;5.85;62.40
43621;BME280;29213;50.770;7.298;2023-04-21T00:36:06;100555.56;;;6.51;62.48
43621;BME280;29213;50.770;7.298;2023-04-21T00:38:32;100635.84;;;7.01;62.53
43621;BME280;29213;50.770;7.298;2023-04-21T00:40:57;100334.38;;;5.11;62.39
43621;BME280;29213;50.770;7.298;2023-04-21T00:43:23;100528.50;;;6.18;62.58
43621;BME280;29213;50.770;7.298;2023-04-21T00:45:50;100590.56;;;6.65;62.32
43621;BME280;29213;50.770;7.298;2023-04-21T00:48:15;100557.81;;;6.46;62.79
43621;BME280;29213;50.770;7.298;2023-04-21T00:50:42;100611.88;;;6.83;62.95
43621;BME280;29213;50.770;7.298;2023-04-21T00:53:09;100501.91;;;6.20;62.83
43621;BME280;29213;50.770;7.298;2023-04-21T00:55:35;100618.88;;;6.94;62.77
43621;BME280;29213;50.770;7.298;2023-04-21T00:58:02;100618.56;;;6.97;62.92
43621;BME280;29213;50.770;7.298;2023-04-21T01:00:28;100568.69;;;6.63;62.61
43621;BME280;29213;50.770;7.298;2023-04-21T01:02:53;100586.81;;;6.77;63.03
43621;BME280;29213;50.770;7.298;2023-04-21T01:05:19;100574.25;;;6.60;62.63
43621;BME280;29213;50.770;7.298;2023-04-21T01:07:44;100568.53;;;6.64;62.36
43621;BME280;29213;50.770;7.298;2023-04-21T01:10:10;100513.75;;;6.25;62.74
43621;BME280;29213;50.770;7.298;2023-04-21T01:12:43;100550.25;;;6.41;62.74
43621;BME280;29213;50.770;7.298;2023-04-21T01:15:11;100613.56;;;6.84;62.88
43621;BME280;29213;50.770;7.298;2023-04-21T01:17:37;100509.28;;;6.16;62.50
43621;BME280;29213;50.770;7.298;2023-04-21T01:20:13;100554.84;;;6.39;62.52
43621;BME280;29213;50.770;7.298;2023-04-21T01:22:40;100623.31;;;6.83;62.78
43621;BME280;29213;50.770;7.298;2023-04-21T01:25:06;100504.25;;;6.13;62.75
43621;BME280;29213;50.770;7.298;2023-04-21T01:27:32;100496.31;;;6.03;62.55
43621;BME280;29213;50.770;7.298;2023-04-21T01:29:58;100562.50;;;6.42;62.73
43621;BME280;29213;50.770;7.298;2023-04-21T01:32:26;100630.28;;;6.85;62.57
43621;BME280;29213;50.770;7.298;2023-04-21T01:34:53;100561.25;;;6.37;63.28
43621;BME280;29213;50.770;7.298;2023-04-21T01:37:22;100635.69;;;6.83;62.58
43621;BME280;29213;50.770;7.298;2023-04-21T01:39:51;100574.66;;;6.45;62.83
43621;BME280;29213;50.770;7.298;2023-04-21T01:42:20;100568.09;;;6.39;62.69
43621;BME280;29213;50.770;7.298;2023-04-21T01:44:46;100604.63;;;6.55;62.81
43621;BME280;29213;50.770;7.298;2023-04-21T01:47:14;100574.63;;;6.35;62.62
43621;BME280;29213;50.770;7.298;2023-04-21T01:49:39;100526.38;;;6.02;62.97
43621;BME280;29213;50.770;7.298;2023-04-21T01:52:05;100618.84;;;6.64;62.98
43621;BME280;29213;50.770;7.298;2023-04-21T01:54:30;100547.72;;;6.20;62.84
43621;BME280;29213;50.770;7.298;2023-04-21T01:56:56;100539.19;;;6.07;63.01
43621;BME280;29213;50.770;7.298;2023-04-21T01:59:22;100491.13;;;5.82;62.78
43621;BME280;29213;50.770;7.298;2023-04-21T02:01:47;100562.75;;;6.29;62.79
43621;BME280;29213;50.770;7.298;2023-04-21T02:04:13;100535.59;;;6.18;62.73
43621;BME280;29213;50.770;7.298;2023-04-21T02:06:38;100585.19;;;6.35;62.72
43621;BME280;29213;50.770;7.298;2023-04-21T02:09:04;100399.19;;;5.25;62.79
43621;BME280;29213;50.770;7.298;2023-04-21T02:11:30;100577.50;;;6.32;63.28
43621;BME280;29213;50.770;7.298;2023-04-21T02:13:55;100584.34;;;6.35;63.22
43621;BME280;29213;50.770;7.298;2023-04-21T02:16:21;100618.94;;;6.53;63.24
43621;BME280;29213;50.770;7.298;2023-04-21T02:18:51;100553.81;;;6.21;63.22
43621;BME280;29213;50.770;7.298;2023-04-21T02:21:16;100598.97;;;6.39;62.90
43621;BME280;29213;50.770;7.298;2023-04-21T02:23:41;100594.53;;;6.39;63.25
43621;BME280;29213;50.770;7.298;2023-04-21T02:26:07;100588.09;;;6.32;63.14
43621;BME280;29213;50.770;7.298;2023-04-21T02:28:33;100464.50;;;5.63;62.96
43621;BME280;29213;50.770;7.298;2023-04-21T02:30:58;100403.75;;;5.22;62.95
43621;BME280;29213;50.770;7.298;2023-04-21T02:33:24;100524.28;;;5.96;62.95
43621;BME280;29213;50.770;7.298;2023-04-21T02:35:49;100626.63;;;6.56;63.16
43621;BME280;29213;50.770;7.298;2023-04-21T02:38:14;100605.78;;;6.32;62.98
43621;BME280;29213;50.770;7.298;2023-04-21T02:40:40;100593.69;;;6.29;62.70
43621;BME280;29213;50.770;7.298;2023-04-21T02:43:07;100559.34;;;6.08;62.92
43621;BME280;29213;50.770;7.298;2023-04-21T02:45:32;100424.72;;;5.14;62.94
43621;BME280;29213;50.770;7.298;2023-04-21T02:47:58;100595.31;;;6.20;63.21
43621;BME280;29213;50.770;7.298;2023-04-21T02:50:24;100626.88;;;6.43;62.94
43621;BME280;29213;50.770;7.298;2023-04-21T02:52:49;100469.72;;;5.44;62.74
43621;BME280;29213;50.770;7.298;2023-04-21T02:55:15;100526.72;;;5.78;62.73
43621;BME280;29213;50.770;7.298;2023-04-21T02:57:40;100511.94;;;5.65;62.54
43621;BME280;29213;50.770;7.298;2023-04-21T03:00:06;100567.84;;;6.01;63.07
43621;BME280;29213;50.770;7.298;2023-04-21T03:02:32;100543.97;;;5.72;62.98
43621;BME280;29213;50.770;7.298;2023-04-21T03:04:57;100523.16;;;5.57;63.12
43621;BME280;29213;50.770;7.298;2023-04-21T03:07:22;100530.56;;;5.63;62.97
43621;BME280;29213;50.770;7.298;2023-04-21T03:09:48;100585.78;;;5.98;62.94
43621;BME280;29213;50.770;7.298;2023-04-21T03:12:13;100576.81;;;5.79;62.88
43621;BME280;29213;50.770;7.298;2023-04-21T03:14:39;100592.97;;;5.86;62.84
43621;BME280;29213;50.770;7.298;2023-04-21T03:17:04;100462.19;;;5.08;62.84
43621;BME280;29213;50.770;7.298;2023-04-21T03:19:30;100627.69;;;6.02;62.65
43621;BME280;29213;50.770;7.298;2023-04-21T03:21:57;100573.16;;;5.70;62.85
43621;BME280;29213;50.770;7.298;2023-04-21T03:24:22;100475.25;;;5.09;63.04
43621;BME280;29213;50.770;7.298;2023-04-21T03:26:47;100613.03;;;5.88;63.03
43621;BME280;29213;50.770;7.298;2023-04-21T03:29:13;100563.66;;;5.58;63.41
43621;BME280;29213;50.770;7.298;2023-04-21T03:31:38;100594.34;;;5.80;63.42
43621;BME280;29213;50.770;7.298;2023-04-21T03:34:04;100583.41;;;5.63;63.29
43621;BME280;29213;50.770;7.298;2023-04-21T03:36:29;100574.78;;;5.61;63.15
43621;BME280;29213;50.770;7.298;2023-04-21T03:38:55;100570.28;;;5.52;63.47
43621;BME280;29213;50.770;7.298;2023-04-21T03:41:22;100586.91;;;5.64;63.35
43621;BME280;29213;50.770;7.298;2023-04-21T03:43:50;100502.63;;;5.08;63.50
43621;BME280;29213;50.770;7.298;2023-04-21T03:46:19;100635.56;;;5.93;63.31
43621;BME280;29213;50.770;7.298;2023-04-21T03:48:46;100578.78;;;5.56;63.29
43621;BME280;29213;50.770;7.298;2023-04-21T03:51:12;100617.09;;;5.71;63.35
43621;BME280;29213;50.770;7.298;2023-04-21T03:53:37;100541.91;;;5.23;63.40
43621;BME280;29213;50.770;7.298;2023-04-21T03:56:03;100652.81;;;5.87;63.45
43621;BME280;29213;50.770;7.298;2023-04-21T03:58:28;100468.09;;;4.79;63.17
43621;BME280;29213;50.770;7.298;2023-04-21T04:00:53;100572.47;;;5.47;62.72
43621;BME280;29213;50.770;7.298;2023-04-21T04:03:19;100607.31;;;5.62;62.80
43621;BME280;29213;50.770;7.298;2023-04-21T04:05:44;100572.41;;;5.37;62.91
43621;BME280;29213;50.770;7.298;2023-04-21T04:08:10;100630.88;;;5.75;62.55
43621;BME280;29213;50.770;7.298;2023-04-21T04:10:35;100587.88;;;5.42;62.35
43621;BME280;29213;50.770;7.298;2023-04-21T04:13:00;100593.56;;;5.37;62.20
43621;BME280;29213;50.770;7.298;2023-04-21T04:15:26;100517.31;;;4.80;62.28
43621;BME280;29213;50.770;7.298;2023-04-21T04:17:52;100540.03;;;4.92;62.23
43621;BME280;29213;50.770;7.298;2023-04-21T04:20:17;100594.84;;;5.21;62.02
43621;BME280;29213;50.770;7.298;2023-04-21T04:22:43;100591.84;;;5.15;62.01
43621;BME280;29213;50.770;7.298;2023-04-21T04:25:08;100575.84;;;5.06;61.85
43621;BME280;29213;50.770;7.298;2023-04-21T04:27:34;100600.97;;;5.22;61.80
43621;BME280;29213;50.770;7.298;2023-04-21T04:29:59;100614.63;;;5.27;61.85
43621;BME280;29213;50.770;7.298;2023-04-21T04:32:25;100581.75;;;4.99;61.98
43621;BME280;29213;50.770;7.298;2023-04-21T04:34:53;100567.50;;;4.90;61.77
43621;BME280;29213;50.770;7.298;2023-04-21T04:37:20;100580.78;;;5.00;62.05
43621;BME280;29213;50.770;7.298;2023-04-21T04:39:46;100447.06;;;4.13;61.90
43621;BME280;29213;50.770;7.298;2023-04-21T04:42:11;100573.75;;;4.89;62.30
43621;BME280;29213;50.770;7.298;2023-04-21T04:44:37;100601.78;;;5.01;62.27
43621;BME280;29213;50.770;7.298;2023-04-21T04:47:03;100539.34;;;4.58;62.48
43621;BME280;29213;50.770;7.298;2023-04-21T04:49:28;100582.78;;;4.86;62.69
43621;BME280;29213;50.770;7.298;2023-04-21T04:51:54;100562.22;;;4.68;63.06
43621;BME280;29213;50.770;7.298;2023-04-21T04:54:19;100633.78;;;5.08;63.12
43621;BME280;29213;50.770;7.298;2023-04-21T04:56:44;100613.03;;;5.03;63.16
43621;BME280;29213;50.770;7.298;2023-04-21T04:59:10;100498.38;;;4.31;63.30
43621;BME280;29213;50.770;7.298;2023-04-21T05:01:36;100646.22;;;5.17;63.45
43621;BME280;29213;50.770;7.298;2023-04-21T05:04:03;100551.94;;;4.54;63.61
43621;BME280;29213;50.770;7.298;2023-04-21T05:06:28;100594.66;;;4.80;63.49
43621;BME280;29213;50.770;7.298;2023-04-21T05:08:54;100547.38;;;4.56;63.68
43621;BME280;29213;50.770;7.298;2023-04-21T05:11:20;100570.63;;;4.62;63.67
43621;BME280;29213;50.770;7.298;2023-04-21T05:13:46;100626.03;;;4.95;63.82
43621;BME280;29213;50.770;7.298;2023-04-21T05:16:11;100460.88;;;3.94;63.79
43621;BME280;29213;50.770;7.298;2023-04-21T05:18:37;100389.59;;;3.40;63.65
43621;BME280;29213;50.770;7.298;2023-04-21T05:21:02;100592.53;;;4.74;63.59
43621;BME280;29213;50.770;7.298;2023-04-21T05:23:27;100626.84;;;4.95;63.36
43621;BME280;29213;50.770;7.298;2023-04-21T05:25:53;100550.00;;;4.45;63.35
43621;BME280;29213;50.770;7.298;2023-04-21T05:28:18;100484.91;;;4.12;63.05
43621;BME280;29213;50.770;7.298;2023-04-21T05:30:44;100615.41;;;4.85;63.36
43621;BME280;29213;50.770;7.298;2023-04-21T05:33:09;100628.44;;;4.87;63.30
43621;BME280;29213;50.770;7.298;2023-04-21T05:35:35;100566.56;;;4.58;63.81
43621;BME280;29213;50.770;7.298;2023-04-21T05:38:01;100658.97;;;5.12;63.51
43621;BME280;29213;50.770;7.298;2023-04-21T05:40:26;100586.66;;;4.71;63.23
43621;BME280;29213;50.770;7.298;2023-04-21T05:42:51;100644.13;;;5.00;63.41
43621;BME280;29213;50.770;7.298;2023-04-21T05:45:17;100618.97;;;4.84;63.36
43621;BME280;29213;50.770;7.298;2023-04-21T05:47:42;100641.50;;;5.00;63.37
43621;BME280;29213;50.770;7.298;2023-04-21T05:50:08;100551.09;;;4.42;63.28
43621;BME280;29213;50.770;7.298;2023-04-21T05:52:33;100601.78;;;4.68;63.45
43621;BME280;29213;50.770;7.298;2023-04-21T05:54:59;100593.41;;;4.63;63.39
43621;BME280;29213;50.770;7.298;2023-04-21T05:57:25;100567.97;;;4.51;63.47
43621;BME280;29213;50.770;7.298;2023-04-21T05:59:50;100591.97;;;4.59;63.77
43621;BME280;29213;50.770;7.298;2023-04-21T06:02:16;100631.47;;;4.82;63.75
43621;BME280;29213;50.770;7.298;2023-04-21T06:04:41;100314.41;;;2.92;63.65
43621;BME280;29213;50.770;7.298;2023-04-21T06:07:07;100585.03;;;4.58;63.91
43621;BME280;29213;50.770;7.298;2023-04-21T06:09:35;100667.16;;;5.09;63.63
43621;BME280;29213;50.770;7.298;2023-04-21T06:12:03;100602.38;;;4.72;63.50
43621;BME280;29213;50.770;7.298;2023-04-21T06:14:29;100650.75;;;4.94;63.61
43621;BME280;29213;50.770;7.298;2023-04-21T06:16:54;100602.50;;;4.71;63.57
43621;BME280;29213;50.770;7.298;2023-04-21T06:19:20;100639.69;;;5.00;63.82
43621;BME280;29213;50.770;7.298;2023-04-21T06:21:45;100556.97;;;4.57;63.57
43621;BME280;29213;50.770;7.298;2023-04-21T06:24:11;100592.75;;;4.82;63.60
43621;BME280;29213;50.770;7.298;2023-04-21T06:26:36;100631.38;;;5.05;63.48
43621;BME280;29213;50.770;7.298;2023-04-21T06:29:01;100595.22;;;4.84;63.96
43621;BME280;29213;50.770;7.298;2023-04-21T06:31:27;100550.22;;;4.64;64.07
43621;BME280;29213;50.770;7.298;2023-04-21T06:33:52;100654.47;;;5.24;64.21
43621;BME280;29213;50.770;7.298;2023-04-21T06:36:17;100379.41;;;3.58;64.07
43621;BME280;29213;50.770;7.298;2023-04-21T06:38:43;100652.34;;;5.18;64.16
43621;BME280;29213;50.770;7.298;2023-04-21T06:41:08;100314.50;;;3.13;63.98
43621;BME280;29213;50.770;7.298;2023-04-21T06:43:34;100571.94;;;4.89;64.41
43621;BME280;29213;50.770;7.298;2023-04-21T06:45:59;100615.84;;;5.23;64.68
43621;BME280;29213;50.770;7.298;2023-04-21T06:48:25;100590.31;;;5.12;64.40
43621;BME280;29213;50.770;7.298;2023-04-21T06:50:51;100630.72;;;5.45;64.14
43621;BME280;29213;50.770;7.298;2023-04-21T06:53:16;100578.59;;;5.26;64.23
43621;BME280;29213;50.770;7.298;2023-04-21T06:55:46;100636.69;;;5.69;64.27
43621;BME280;29213;50.770;7.298;2023-04-21T06:58:12;100554.53;;;5.19;64.27
43621;BME280;29213;50.770;7.298;2023-04-21T07:00:37;100541.44;;;5.18;64.33
43621;BME280;29213;50.770;7.298;2023-04-21T07:03:03;100635.53;;;5.83;64.06
43621;BME280;29213;50.770;7.298;2023-04-21T07:05:28;100524.47;;;5.11;64.27
43621;BME280;29213;50.770;7.298;2023-04-21T07:07:54;100641.91;;;5.80;64.07
43621;BME280;29213;50.770;7.298;2023-04-21T07:10:28;100650.19;;;5.97;64.35
43621;BME280;29213;50.770;7.298;2023-04-21T07:12:54;100593.72;;;5.67;64.44
43621;BME280;29213;50.770;7.298;2023-04-21T07:15:20;100631.81;;;5.95;64.51
43621;BME280;29213;50.770;7.298;2023-04-21T07:17:45;100530.25;;;5.57;64.46
43621;BME280;29213;50.770;7.298;2023-04-21T07:20:12;100635.16;;;6.28;64.56
43621;BME280;29213;50.770;7.298;2023-04-21T07:22:37;100493.53;;;5.54;64.49
43621;BME280;29213;50.770;7.298;2023-04-21T07:25:03;100554.59;;;6.01;64.41
43621;BME280;29213;50.770;7.298;2023-04-21T07:27:32;100640.28;;;6.61;64.30
43621;BME280;29213;50.770;7.298;2023-04-21T07:29:58;100569.56;;;6.22;63.96
43621;BME280;29213;50.770;7.298;2023-04-21T07:32:23;100629.28;;;6.66;64.58
43621;BME280;29213;50.770;7.298;2023-04-21T07:34:48;100629.28;;;6.66;64.82
43621;BME280;29213;50.770;7.298;2023-04-21T07:37:14;100561.09;;;6.38;64.63
43621;BME280;29213;50.770;7.298;2023-04-21T07:39:40;100501.34;;;6.16;64.78
43621;BME280;29213;50.770;7.298;2023-04-21T07:42:05;100622.06;;;6.88;64.35
43621;BME280;29213;50.770;7.298;2023-04-21T07:44:33;100610.75;;;6.86;64.13
43621;BME280;29213;50.770;7.298;2023-04-21T07:46:58;100604.09;;;6.91;64.30
43621;BME280;29213;50.770;7.298;2023-04-21T07:49:24;100583.34;;;6.87;64.00
43621;BME280;29213;50.770;7.298;2023-04-21T07:51:49;100553.22;;;6.68;63.65
43621;BME280;29213;50.770;7.298;2023-04-21T07:54:15;100634.44;;;7.36;63.93
43621;BME280;29213;50.770;7.298;2023-04-21T07:56:41;100589.03;;;7.12;63.56
43621;BME280;29213;50.770;7.298;2023-04-21T07:59:06;100620.50;;;7.34;63.92
43621;BME280;29213;50.770;7.298;2023-04-21T08:01:31;100588.47;;;7.18;64.10
43621;BME280;29213;50.770;7.298;2023-04-21T08:03:57;100626.34;;;7.48;63.95
43621;BME280;29213;50.770;7.298;2023-04-21T08:06:22;100570.31;;;7.23;63.90
43621;BME280;29213;50.770;7.298;2023-04-21T08:08:48;100506.00;;;6.93;63.78
43621;BME280;29213;50.770;7.298;2023-04-21T08:11:14;100544.09;;;7.30;63.65
43621;BME280;29213;50.770;7.298;2023-04-21T08:13:39;100465.72;;;6.89;63.44
43621;BME280;29213;50.770;7.298;2023-04-21T08:16:05;100335.03;;;6.13;63.20
43621;BME280;29213;50.770;7.298;2023-04-21T08:18:30;100607.53;;;7.89;63.32
43621;BME280;29213;50.770;7.298;2023-04-21T08:20:56;100501.69;;;7.40;63.36
43621;BME280;29213;50.770;7.298;2023-04-21T08:23:22;100571.78;;;7.93;63.39
43621;BME280;29213;50.770;7.298;2023-04-21T08:25:47;100632.19;;;8.37;63.34
43621;BME280;29213;50.770;7.298;2023-04-21T08:28:13;100479.63;;;7.49;62.86
43621;BME280;29213;50.770;7.298;2023-04-21T08:30:40;100456.50;;;7.41;62.44
43621;BME280;29213;50.770;7.298;2023-04-21T08:33:06;100510.25;;;7.89;62.55
43621;BME280;29213;50.770;7.298;2023-04-21T08:35:35;100526.06;;;8.09;62.21
43621;BME280;29213;50.770;7.298;2023-04-21T08:38:01;100558.50;;;8.49;62.50
43621;BME280;29213;50.770;7.298;2023-04-21T08:40:32;100436.78;;;8.00;62.19
43621;BME280;29213;50.770;7.298;2023-04-21T08:42:58;100522.47;;;8.65;61.70
43621;BME280;29213;50.770;7.298;2023-04-21T08:45:24;100602.47;;;9.25;61.68
43621;BME280;29213;50.770;7.298;2023-04-21T08:47:50;100547.47;;;8.99;61.63
43621;BME280;29213;50.770;7.298;2023-04-21T08:50:16;100330.25;;;7.68;60.86
43621;BME280;29213;50.770;7.298;2023-04-21T08:52:41;100548.38;;;9.07;61.33
43621;BME280;29213;50.770;7.298;2023-04-21T08:55:08;100625.88;;;9.66;61.76
43621;BME280;29213;50.770;7.298;2023-04-21T08:57:33;100602.03;;;9.82;61.21
43621;BME280;29213;50.770;7.298;2023-04-21T08:59:59;100511.38;;;9.67;60.31
43621;BME280;29213;50.770;7.298;2023-04-21T09:02:25;100462.66;;;9.58;59.18
43621;BME280;29213;50.770;7.298;2023-04-21T09:04:51;100611.47;;;10.71;58.43
43621;BME280;29213;50.770;7.298;2023-04-21T09:07:32;100577.19;;;10.76;57.54
43621;BME280;29213;50.770;7.298;2023-04-21T09:09:58;100611.00;;;11.26;56.63
43621;BME280;29213;50.770;7.298;2023-04-21T09:12:28;100596.50;;;11.45;56.50
43621;BME280;29213;50.770;7.298;2023-04-21T09:14:54;100598.63;;;11.58;56.88
43621;BME280;29213;50.770;7.298;2023-04-21T09:17:30;100565.38;;;11.37;56.84
43621;BME280;29213;50.770;7.298;2023-04-21T09:20:20;100604.78;;;11.75;56.90
43621;BME280;29213;50.770;7.298;2023-04-21T09:22:49;100508.19;;;11.31;57.04
43621;BME280;29213;50.770;7.298;2023-04-21T09:25:16;100550.78;;;11.56;55.92
43621;BME280;29213;50.770;7.298;2023-04-21T09:27:43;100379.97;;;10.36;56.75
43621;BME280;29213;50.770;7.298;2023-04-21T09:30:10;100360.31;;;10.12;57.11
43621;BME280;29213;50.770;7.298;2023-04-21T09:32:38;100550.56;;;11.09;56.76
43621;BME280;29213;50.770;7.298;2023-04-21T09:35:08;100370.31;;;10.27;57.06
43621;BME280;29213;50.770;7.298;2023-04-21T09:37:34;100440.28;;;11.19;56.92
43621;BME280;29213;50.770;7.298;2023-04-21T09:40:00;100541.44;;;12.09;56.21
43621;BME280;29213;50.770;7.298;2023-04-21T09:42:30;100510.47;;;12.23;55.63
43621;BME280;29213;50.770;7.298;2023-04-21T09:44:56;100525.25;;;12.10;53.79
43621;BME280;29213;50.770;7.298;2023-04-21T09:47:22;100525.13;;;12.03;54.76
43621;BME280;29213;50.770;7.298;2023-04-21T09:49:51;100571.22;;;12.52;54.49
43621;BME280;29213;50.770;7.298;2023-04-21T09:52:20;100559.28;;;12.40;54.44
43621;BME280;29213;50.770;7.298;2023-04-21T09:54:50;100573.41;;;12.49;54.70
43621;BME280;29213;50.770;7.298;2023-04-21T09:57:20;100499.25;;;12.04;54.90
43621;BME280;29213;50.770;7.298;2023-04-21T09:59:59;100500.06;;;12.36;54.91
43621;BME280;29213;50.770;7.298;2023-04-21T10:02:29;100500.41;;;12.56;54.13
43621;BME280;29213;50.770;7.298;2023-04-21T10:04:55;100162.25;;;10.55;52.30
43621;BME280;29213;50.770;7.298;2023-04-21T10:07:21;100509.31;;;12.72;53.56
43621;BME280;29213;50.770;7.298;2023-04-21T10:09:51;100512.81;;;12.88;53.03
43621;BME280;29213;50.770;7.298;2023-04-21T10:12:19;100548.25;;;12.90;52.55
43621;BME280;29213;50.770;7.298;2023-04-21T10:14:45;100367.38;;;11.67;53.41
43621;BME280;29213;50.770;7.298;2023-04-21T10:17:14;100323.41;;;11.62;53.70
43621;BME280;29213;50.770;7.298;2023-04-21T10:19:48;100453.19;;;12.72;53.37
43621;BME280;29213;50.770;7.298;2023-04-21T10:22:14;100501.31;;;13.11;52.86
43621;BME280;29213;50.770;7.298;2023-04-21T10:24:54;100494.56;;;13.30;52.66
43621;BME280;29213;50.770;7.298;2023-04-21T10:27:34;100496.41;;;13.44;52.23
43621;BME280;29213;50.770;7.298;2023-04-21T10:30:00;100471.75;;;13.79;52.38
43621;BME280;29213;50.770;7.298;2023-04-21T10:32:38;100511.34;;;14.42;51.40
43621;BME280;29213;50.770;7.298;2023-04-21T10:35:08;100510.41;;;14.28;50.96
43621;BME280;29213;50.770;7.298;2023-04-21T10:37:34;100490.34;;;14.24;51.07
43621;BME280;29213;50.770;7.298;2023-04-21T10:39:59;100505.22;;;14.27;50.25
43621;BME280;29213;50.770;7.298;2023-04-21T10:42:27;100333.50;;;13.13;49.86
43621;BME280;29213;50.770;7.298;2023-04-21T10:45:00;100478.56;;;14.19;50.44
43621;BME280;29213;50.770;7.298;2023-04-21T10:47:29;100491.47;;;14.52;49.34
43621;BME280;29213;50.770;7.298;2023-04-21T10:50:10;100487.28;;;14.71;47.19
43621;BME280;29213;50.770;7.298;2023-04-21T10:52:36;100401.56;;;14.06;44.04
43621;BME280;29213;50.770;7.298;2023-04-21T10:55:07;100449.19;;;14.25;44.76
43621;BME280;29213;50.770;7.298;2023-04-21T10:57:35;100472.44;;;14.47;44.23
43621;BME280;29213;50.770;7.298;2023-04-21T11:00:00;100422.88;;;13.92;43.88
43621;BME280;29213;50.770;7.298;2023-04-21T11:02:26;100410.16;;;14.16;43.59
43621;BME280;29213;50.770;7.298;2023-04-21T11:04:54;100406.44;;;14.39;43.44
43621;BME280;29213;50.770;7.298;2023-04-21T11:07:23;100446.63;;;14.96;43.82
43621;BME280;29213;50.770;7.298;2023-04-21T11:10:00;100427.66;;;14.98;42.81
43621;BME280;29213;50.770;7.298;2023-04-21T11:12:31;100455.00;;;15.15;41.39
43621;BME280;29213;50.770;7.298;2023-04-21T11:14:57;100404.38;;;14.69;41.39
43621;BME280;29213;50.770;7.298;2023-04-21T11:17:23;100445.06;;;15.08;42.85
43621;BME280;29213;50.770;7.298;2023-04-21T11:19:54;100436.97;;;15.02;42.69
43621;BME280;29213;50.770;7.298;2023-04-21T11:22:22;100425.69;;;15.55;43.20
43621;BME280;29213;50.770;7.298;2023-04-21T11:24:50;100388.63;;;15.23;40.54
43621;BME280;29213;50.770;7.298;2023-04-21T11:27:16;100429.91;;;15.92;42.70
43621;BME280;29213;50.770;7.298;2023-04-21T11:29:45;100429.16;;;16.25;42.54
43621;BME280;29213;50.770;7.298;2023-04-21T11:32:11;100370.66;;;16.07;42.01
43621;BME280;29213;50.770;7.298;2023-04-21T11:34:37;100412.44;;;16.50;41.11
43621;BME280;29213;50.770;7.298;2023-04-21T11:37:03;100377.91;;;16.47;41.72
43621;BME280;29213;50.770;7.298;2023-04-21T11:39:31;100406.38;;;16.88;41.21
43621;BME280;29213;50.770;7.298;2023-04-21T11:41:56;100406.31;;;17.15;40.44
43621;BME280;29213;50.770;7.298;2023-04-21T11:46:56;100316.97;;;17.00;40.11
43621;BME280;29213;50.770;7.298;2023-04-21T11:49:24;100362.66;;;17.52;38.94
43621;BME280;29213;50.770;7.298;2023-04-21T11:51:50;100313.31;;;16.74;38.65
43621;BME280;29213;50.770;7.298;2023-04-21T11:54:17;100379.88;;;17.44;38.47
43621;BME280;29213;50.770;7.298;2023-04-21T11:56:45;100282.94;;;16.66;38.55
43621;BME280;29213;50.770;7.298;2023-04-21T11:59:16;100293.97;;;16.45;38.91
43621;BME280;29213;50.770;7.298;2023-04-21T12:01:44;100378.06;;;16.79;38.90
43621;BME280;29213;50.770;7.298;2023-04-21T12:04:18;100345.84;;;16.45;39.82
43621;BME280;29213;50.770;7.298;2023-04-21T12:06:46;100334.09;;;16.39;39.59
43621;BME280;29213;50.770;7.298;2023-04-21T12:09:19;100302.47;;;16.28;40.56
43621;BME280;29213;50.770;7.298;2023-04-21T12:11:53;100316.75;;;16.22;40.75
43621;BME280;29213;50.770;7.298;2023-04-21T12:14:20;100381.44;;;16.27;40.51
43621;BME280;29213;50.770;7.298;2023-04-21T12:16:53;100357.19;;;16.61;39.44
43621;BME280;29213;50.770;7.298;2023-04-21T12:19:35;100266.34;;;15.97;40.93
43621;BME280;29213;50.770;7.298;2023-04-21T12:22:06;100375.84;;;16.35;41.44
43621;BME280;29213;50.770;7.298;2023-04-21T12:24:31;100336.94;;;15.84;40.99
43621;BME280;29213;50.770;7.298;2023-04-21T12:26:57;100345.84;;;15.84;42.82
43621;BME280;29213;50.770;7.298;2023-04-21T12:29:22;100229.34;;;15.38;42.66
43621;BME280;29213;50.770;7.298;2023-04-21T12:31:47;100292.72;;;16.40;42.29
43621;BME280;29213;50.770;7.298;2023-04-21T12:34:13;100276.00;;;16.32;40.87
43621;BME280;29213;50.770;7.298;2023-04-21T12:36:38;100355.72;;;16.92;40.67
43621;BME280;29213;50.770;7.298;2023-04-21T12:39:04;100311.34;;;16.28;42.51
43621;BME280;29213;50.770;7.298;2023-04-21T12:41:30;100372.06;;;16.70;41.01
43621;BME280;29213;50.770;7.298;2023-04-21T12:43:55;100322.19;;;16.81;42.11
43621;BME280;29213;50.770;7.298;2023-04-21T12:46:21;100225.41;;;16.74;41.12
43621;BME280;29213;50.770;7.298;2023-04-21T12:48:46;100221.78;;;16.55;40.34
43621;BME280;29213;50.770;7.298;2023-04-21T12:51:12;100289.16;;;17.19;39.55
43621;BME280;29213;50.770;7.298;2023-04-21T12:53:38;100283.19;;;17.11;38.99
43621;BME280;29213;50.770;7.298;2023-04-21T12:56:04;100341.41;;;16.98;38.19
43621;BME280;29213;50.770;7.298;2023-04-21T12:58:29;100324.78;;;16.35;39.96